Bullittsville, Kentucky
Current Conditions -  °F | °C
As of 12:52 AM on Sunday 23 Nov 2014 (Local Time) from KCVG Reporting Station
Overcast Overcast  
Wind Chill: 52°   Ceiling: 8000
Heat Index: 52°   Visibility: 10mi
Dew Point: 32°   Wind: 12mph
Humidity: 47%   Direction: 200°SSW
Pressure: 30.05"   Gusts: NA
Location:  39.0238°N, 84.7647°W
Report Text: KCVG 230552Z 20010KT 10SM OVC080 11/00 A3005 RMK AO2 SLP175 T01110000 10122 20083 56005
Loading
Personal Weather Stations






























Interactive Weather Map New forecast layout! Learn more

10-Day Weather Forecast

Advertisements
Track Severe Weather on mobile